createdAt,value
2018-06-09T00:00:20.948Z,99.90
2018-06-09T00:01:24.306Z,99.90
2018-06-09T00:02:27.656Z,99.90
2018-06-09T00:03:31.039Z,99.90
2018-06-09T00:04:34.399Z,99.90
2018-06-09T00:05:37.779Z,99.90
2018-06-09T00:06:41.113Z,99.90
2018-06-09T00:07:44.488Z,99.90
2018-06-09T00:08:47.843Z,99.90
2018-06-09T00:09:51.232Z,99.90
2018-06-09T00:10:54.753Z,99.90
2018-06-09T00:11:58.104Z,99.90
2018-06-09T00:13:01.485Z,99.90
2018-06-09T00:14:04.818Z,99.90
2018-06-09T00:15:08.173Z,99.90
2018-06-09T00:17:14.615Z,99.90
2018-06-09T00:18:17.963Z,99.90
2018-06-09T00:19:21.299Z,99.90
2018-06-09T00:20:24.660Z,99.90
2018-06-09T00:21:28.066Z,99.90
2018-06-09T00:22:31.436Z,99.90
2018-06-09T00:23:34.790Z,99.90
2018-06-09T00:24:38.119Z,99.90
2018-06-09T00:25:41.443Z,99.90
2018-06-09T00:26:45.667Z,99.90
2018-06-09T00:27:49.027Z,99.90
2018-06-09T00:28:52.380Z,99.90
2018-06-09T00:29:55.744Z,99.90
2018-06-09T00:30:59.153Z,99.90
2018-06-09T00:32:02.490Z,99.90
2018-06-09T00:33:05.833Z,99.90
2018-06-09T00:34:15.922Z,99.90
2018-06-09T00:35:19.279Z,99.90
2018-06-09T00:36:22.653Z,99.90
2018-06-09T00:37:26.024Z,99.90
2018-06-09T00:38:29.415Z,99.90
2018-06-09T00:39:32.762Z,99.90
2018-06-09T00:40:36.118Z,99.90
2018-06-09T00:41:39.512Z,99.90
2018-06-09T00:42:42.876Z,99.90
2018-06-09T00:44:55.928Z,99.90
2018-06-09T00:45:59.282Z,99.90
2018-06-09T00:47:02.663Z,99.90
2018-06-09T00:48:06.030Z,99.90
2018-06-09T00:49:09.376Z,99.90
2018-06-09T00:50:12.728Z,99.90
2018-06-09T00:51:16.103Z,99.90
2018-06-09T00:52:19.483Z,99.90
2018-06-09T00:53:22.840Z,99.90
2018-06-09T00:54:26.251Z,99.90
2018-06-09T00:55:29.601Z,99.90
2018-06-09T00:56:43.525Z,99.90
2018-06-09T00:57:46.859Z,99.90
2018-06-09T00:58:50.202Z,99.90
2018-06-09T00:59:53.575Z,99.90
2018-06-09T01:00:56.922Z,99.90
2018-06-09T01:02:00.272Z,99.90
2018-06-09T01:03:03.630Z,99.90
2018-06-09T01:04:07.205Z,99.90
2018-06-09T01:05:10.600Z,99.90
2018-06-09T01:06:13.935Z,99.90
2018-06-09T01:07:17.344Z,99.90
2018-06-09T01:08:20.672Z,99.90
2018-06-09T01:09:24.018Z,99.90
2018-06-09T01:10:27.376Z,99.90
2018-06-09T01:11:30.859Z,99.90
2018-06-09T01:12:34.246Z,99.90
2018-06-09T01:13:37.592Z,99.90
2018-06-09T01:14:40.986Z,99.90
2018-06-09T01:15:44.336Z,99.90
2018-06-09T01:16:47.699Z,99.90
2018-06-09T01:17:51.051Z,99.90
2018-06-09T01:18:54.398Z,99.90
2018-06-09T01:19:57.783Z,99.90
2018-06-09T01:21:01.144Z,99.90
2018-06-09T01:22:04.561Z,99.90
2018-06-09T01:23:07.908Z,99.90
2018-06-09T01:24:11.286Z,99.90
2018-06-09T01:25:14.619Z,99.90
2018-06-09T01:26:17.984Z,99.90
2018-06-09T01:27:21.337Z,99.90
2018-06-09T01:28:24.689Z,99.90
2018-06-09T01:29:28.076Z,99.90
2018-06-09T01:30:31.415Z,99.90
2018-06-09T01:31:34.787Z,99.90
2018-06-09T01:32:38.136Z,99.90
2018-06-09T01:33:41.517Z,99.90
2018-06-09T01:34:44.890Z,99.90
2018-06-09T01:35:48.233Z,99.90
2018-06-09T01:36:51.575Z,99.90
2018-06-09T01:37:54.921Z,99.90
2018-06-09T01:38:58.307Z,99.90
2018-06-09T01:40:01.675Z,99.90
2018-06-09T01:41:05.379Z,99.90
2018-06-09T01:42:08.736Z,99.90
2018-06-09T01:43:12.100Z,99.90
2018-06-09T01:44:15.478Z,99.90
2018-06-09T01:45:18.822Z,99.90
2018-06-09T01:46:22.179Z,99.90
2018-06-09T01:47:25.599Z,99.90
2018-06-09T01:48:28.942Z,99.90
2018-06-09T01:49:32.345Z,99.90
2018-06-09T01:50:35.687Z,99.90
2018-06-09T01:51:39.035Z,99.90
2018-06-09T01:53:45.427Z,99.90
2018-06-09T01:54:48.826Z,99.90
2018-06-09T01:55:52.191Z,99.90
2018-06-09T01:56:55.539Z,99.90
2018-06-09T01:57:58.879Z,99.90
2018-06-09T01:59:02.219Z,99.90
2018-06-09T02:00:05.631Z,99.90
2018-06-09T02:01:08.976Z,99.90
2018-06-09T02:02:12.344Z,99.90
2018-06-09T02:03:15.704Z,99.90
2018-06-09T02:04:19.078Z,99.90
2018-06-09T02:05:22.456Z,99.90
2018-06-09T02:06:25.855Z,99.90
2018-06-09T02:07:29.189Z,99.90
2018-06-09T02:08:32.533Z,99.90
2018-06-09T02:09:35.892Z,99.90
2018-06-09T02:10:39.232Z,99.90
2018-06-09T02:11:42.618Z,99.90
2018-06-09T02:12:45.995Z,99.90
2018-06-09T02:13:49.346Z,99.90
2018-06-09T02:14:52.671Z,99.90
2018-06-09T02:15:56.011Z,99.90
2018-06-09T02:16:59.375Z,99.90
2018-06-09T02:18:02.717Z,99.90
2018-06-09T02:19:06.059Z,99.90
2018-06-09T02:20:09.412Z,99.90
2018-06-09T02:21:12.756Z,99.90
2018-06-09T02:22:16.122Z,99.90
2018-06-09T02:23:19.509Z,99.90
2018-06-09T02:24:22.836Z,99.90
2018-06-09T02:25:26.184Z,99.90
2018-06-09T02:26:29.538Z,99.90
2018-06-09T02:27:33.277Z,99.90
2018-06-09T02:28:36.676Z,99.90
2018-06-09T02:29:40.016Z,99.90
2018-06-09T02:30:43.369Z,99.90
2018-06-09T02:31:46.732Z,99.90
2018-06-09T02:32:50.073Z,99.90
2018-06-09T02:33:53.453Z,99.90
2018-06-09T02:34:56.789Z,99.90
2018-06-09T02:36:00.123Z,99.90
2018-06-09T02:37:03.452Z,99.90
2018-06-09T02:38:06.803Z,99.90
2018-06-09T02:39:10.203Z,99.90
2018-06-09T02:40:13.565Z,99.90
2018-06-09T02:41:16.933Z,99.90
2018-06-09T02:42:20.282Z,99.90
2018-06-09T02:43:23.624Z,99.90
2018-06-09T02:44:26.984Z,99.90
2018-06-09T02:45:30.336Z,99.90
2018-06-09T02:46:33.685Z,99.90
2018-06-09T02:47:37.028Z,99.90
2018-06-09T02:48:40.378Z,99.90
2018-06-09T02:49:43.747Z,99.90
2018-06-09T02:50:47.090Z,99.90
2018-06-09T02:51:50.419Z,99.90
2018-06-09T02:52:53.756Z,99.90
2018-06-09T02:53:57.098Z,99.90
2018-06-09T02:55:06.923Z,99.90
2018-06-09T02:56:10.292Z,99.90
2018-06-09T02:57:13.676Z,99.90
2018-06-09T02:59:20.083Z,99.90
2018-06-09T03:00:23.439Z,99.90
2018-06-09T03:01:26.781Z,99.90
2018-06-09T03:02:30.137Z,99.90
2018-06-09T03:03:33.471Z,99.90
2018-06-09T03:04:36.802Z,99.90
2018-06-09T03:05:40.207Z,99.90
2018-06-09T03:06:43.527Z,99.90
2018-06-09T03:07:46.868Z,99.90
2018-06-09T03:08:50.184Z,99.90
2018-06-09T03:09:53.517Z,99.90
2018-06-09T03:10:56.873Z,99.90
2018-06-09T03:12:00.207Z,99.90
2018-06-09T03:13:03.555Z,99.90
2018-06-09T03:14:06.926Z,99.90
2018-06-09T03:15:10.259Z,99.90
2018-06-09T03:16:13.622Z,99.90
2018-06-09T03:17:16.968Z,99.90
2018-06-09T03:18:20.306Z,99.90
2018-06-09T03:19:23.688Z,99.90
2018-06-09T03:20:27.064Z,99.90
2018-06-09T03:21:30.408Z,99.90
2018-06-09T03:22:33.757Z,99.90
2018-06-09T03:23:37.120Z,99.90
2018-06-09T03:24:40.459Z,99.90
2018-06-09T03:25:43.824Z,99.90
2018-06-09T03:26:47.179Z,99.90
2018-06-09T03:27:50.515Z,99.90
2018-06-09T03:28:53.892Z,99.90
2018-06-09T03:29:57.259Z,99.90
2018-06-09T03:31:00.603Z,99.90
2018-06-09T03:32:03.984Z,99.90
2018-06-09T03:33:07.347Z,99.90
2018-06-09T03:34:10.688Z,99.90
2018-06-09T03:35:14.081Z,99.90
2018-06-09T03:36:17.411Z,99.90
2018-06-09T03:37:20.748Z,99.90
2018-06-09T03:38:24.082Z,99.90
2018-06-09T03:39:27.417Z,99.90
2018-06-09T03:40:30.815Z,99.90
2018-06-09T03:41:34.271Z,99.90
2018-06-09T03:42:37.618Z,99.90
2018-06-09T03:43:40.955Z,99.90
2018-06-09T03:44:44.285Z,99.90
2018-06-09T03:45:47.647Z,99.90
2018-06-09T03:46:50.982Z,99.90
2018-06-09T03:47:54.328Z,99.90
2018-06-09T03:48:57.664Z,99.90
2018-06-09T03:50:01.025Z,99.90
2018-06-09T03:52:07.495Z,99.90
2018-06-09T03:54:13.870Z,99.90
2018-06-09T03:55:17.202Z,99.90
2018-06-09T03:56:20.526Z,99.90
2018-06-09T03:57:23.916Z,99.90
2018-06-09T03:58:27.258Z,99.90
2018-06-09T03:59:30.606Z,99.90
2018-06-09T04:00:33.927Z,99.90
2018-06-09T04:01:37.268Z,99.90
2018-06-09T04:02:40.628Z,99.90
2018-06-09T04:03:44.025Z,99.90
2018-06-09T04:04:47.352Z,99.90
2018-06-09T04:05:50.684Z,99.90
2018-06-09T04:06:54.070Z,99.90
2018-06-09T04:07:57.419Z,99.90
2018-06-09T04:09:00.805Z,99.90
2018-06-09T04:10:04.165Z,99.90
2018-06-09T04:11:07.513Z,99.90
2018-06-09T04:12:10.859Z,99.90
2018-06-09T04:13:14.194Z,99.90
2018-06-09T04:14:17.566Z,99.90
2018-06-09T04:15:20.935Z,99.90
2018-06-09T04:16:24.313Z,99.90
2018-06-09T04:17:27.650Z,99.90
2018-06-09T04:18:31.008Z,99.90
2018-06-09T04:20:37.524Z,99.90
2018-06-09T04:21:40.832Z,99.90
2018-06-09T04:22:44.187Z,99.90
2018-06-09T04:23:47.560Z,99.90
2018-06-09T04:24:50.916Z,99.90
2018-06-09T04:25:54.283Z,99.90
2018-06-09T04:26:57.630Z,99.90
2018-06-09T04:28:00.960Z,99.90
2018-06-09T04:29:04.304Z,99.90
2018-06-09T04:30:07.638Z,99.90
2018-06-09T04:31:11.067Z,99.90
2018-06-09T04:32:14.405Z,99.90
2018-06-09T04:33:17.760Z,99.90
2018-06-09T04:34:21.101Z,99.90
2018-06-09T04:35:24.438Z,99.90
2018-06-09T04:36:27.829Z,99.90
2018-06-09T04:37:31.168Z,99.90
2018-06-09T04:38:34.519Z,99.90
2018-06-09T04:39:37.879Z,99.90
2018-06-09T04:40:41.256Z,99.90
2018-06-09T04:41:44.633Z,99.90
2018-06-09T04:42:47.978Z,99.90
2018-06-09T04:43:51.336Z,99.90
2018-06-09T04:44:54.694Z,99.90
2018-06-09T04:45:58.134Z,99.90
2018-06-09T04:47:01.452Z,99.90
2018-06-09T04:48:04.878Z,99.90
2018-06-09T04:49:08.227Z,99.90
2018-06-09T04:50:11.556Z,99.90
2018-06-09T04:51:14.966Z,99.90
2018-06-09T04:52:18.369Z,99.90
2018-06-09T04:54:24.760Z,99.90
2018-06-09T04:55:28.099Z,99.90
2018-06-09T04:56:31.478Z,99.90
2018-06-09T04:57:34.851Z,99.90
2018-06-09T04:58:38.207Z,99.90
2018-06-09T04:59:41.563Z,99.90
2018-06-09T05:00:44.953Z,99.90
2018-06-09T05:01:48.335Z,99.90
2018-06-09T05:02:51.718Z,99.90
2018-06-09T05:03:55.060Z,99.90
2018-06-09T05:04:58.425Z,99.90
2018-06-09T05:06:01.833Z,99.90
2018-06-09T05:07:05.200Z,99.90
2018-06-09T05:08:08.541Z,99.90
2018-06-09T05:09:11.878Z,99.90
2018-06-09T05:10:15.220Z,99.90
2018-06-09T05:11:18.607Z,99.90
2018-06-09T05:12:21.928Z,99.90
2018-06-09T05:13:25.269Z,99.90
2018-06-09T05:14:28.616Z,99.90
2018-06-09T05:15:31.952Z,99.90
2018-06-09T05:16:35.307Z,99.90
2018-06-09T05:17:38.641Z,99.90
2018-06-09T05:18:41.975Z,99.90
2018-06-09T05:19:45.315Z,99.90
2018-06-09T05:20:48.672Z,99.90
2018-06-09T05:21:52.045Z,99.90
2018-06-09T05:22:55.373Z,99.90
2018-06-09T05:23:58.705Z,99.90
2018-06-09T05:25:02.041Z,99.90
2018-06-09T05:26:05.381Z,99.90
2018-06-09T05:27:08.756Z,99.90
2018-06-09T05:28:12.143Z,99.90
2018-06-09T05:29:15.463Z,99.90
2018-06-09T05:30:18.811Z,99.90
2018-06-09T05:31:22.139Z,99.90
2018-06-09T05:32:25.512Z,99.90
2018-06-09T05:33:28.891Z,99.90
2018-06-09T05:34:32.243Z,99.90
2018-06-09T05:35:35.576Z,99.90
2018-06-09T05:36:38.902Z,99.90
2018-06-09T05:37:42.233Z,99.90
2018-06-09T05:38:45.594Z,99.90
2018-06-09T05:39:48.939Z,99.90
2018-06-09T05:40:52.282Z,99.90
2018-06-09T05:41:55.609Z,99.90
2018-06-09T05:42:58.959Z,99.90
2018-06-09T05:44:02.468Z,99.90
2018-06-09T05:45:05.827Z,99.90
2018-06-09T05:46:09.164Z,99.90
2018-06-09T05:47:12.502Z,99.90
2018-06-09T05:48:15.855Z,99.90
2018-06-09T05:49:19.214Z,99.90
2018-06-09T05:50:22.615Z,99.90
2018-06-09T05:51:25.954Z,99.90
2018-06-09T05:52:29.271Z,99.90
2018-06-09T05:53:32.610Z,99.90
2018-06-09T05:54:35.986Z,99.90
2018-06-09T05:55:39.419Z,99.90
2018-06-09T05:56:42.708Z,99.90
2018-06-09T05:57:46.052Z,99.90
2018-06-09T05:58:49.450Z,99.90
2018-06-09T05:59:52.796Z,99.90
2018-06-09T06:00:56.136Z,99.90
2018-06-09T06:01:59.472Z,99.90
2018-06-09T06:03:02.851Z,99.90
2018-06-09T06:04:06.241Z,99.90
2018-06-09T06:05:09.609Z,99.90
2018-06-09T06:06:12.954Z,99.90
2018-06-09T06:07:16.290Z,99.90
2018-06-09T06:08:19.679Z,99.90
2018-06-09T06:09:23.035Z,99.90
2018-06-09T06:10:26.368Z,99.90
2018-06-09T06:11:29.723Z,99.90
2018-06-09T06:12:33.059Z,99.90
2018-06-09T06:13:36.394Z,99.90
2018-06-09T06:14:39.780Z,99.90
2018-06-09T06:15:43.131Z,99.90
2018-06-09T06:16:46.492Z,99.90
2018-06-09T06:17:49.836Z,99.90
2018-06-09T06:18:53.189Z,99.90
2018-06-09T06:19:56.568Z,99.90
2018-06-09T06:20:59.905Z,99.90
2018-06-09T06:23:06.363Z,99.90
2018-06-09T06:24:09.707Z,99.90
2018-06-09T06:25:13.048Z,99.90
2018-06-09T06:26:16.371Z,99.90
2018-06-09T06:27:19.724Z,99.90
2018-06-09T06:28:23.063Z,99.90
2018-06-09T06:29:26.400Z,99.90
2018-06-09T06:30:29.753Z,99.90
2018-06-09T06:31:33.148Z,99.90
2018-06-09T06:32:36.495Z,99.90
2018-06-09T06:33:39.829Z,99.90
2018-06-09T06:34:43.175Z,99.90
2018-06-09T06:35:46.543Z,99.90
2018-06-09T06:36:49.876Z,99.90
2018-06-09T06:37:53.219Z,99.90
2018-06-09T06:38:56.692Z,99.90
2018-06-09T06:40:00.040Z,99.90
2018-06-09T06:41:03.489Z,99.90
2018-06-09T06:42:06.850Z,99.90
2018-06-09T06:43:10.229Z,99.90
2018-06-09T06:44:13.624Z,99.90
2018-06-09T06:45:16.975Z,99.90
2018-06-09T06:46:20.331Z,99.90
2018-06-09T06:47:23.664Z,99.90
2018-06-09T06:48:27.011Z,99.90
2018-06-09T06:49:30.396Z,99.90
2018-06-09T06:50:33.748Z,99.90
2018-06-09T06:51:37.078Z,99.90
2018-06-09T06:52:40.419Z,99.90
2018-06-09T06:53:43.775Z,99.90
2018-06-09T06:54:47.156Z,99.90
2018-06-09T06:55:50.491Z,99.90
2018-06-09T06:56:53.842Z,99.90
2018-06-09T06:57:57.209Z,99.90
2018-06-09T06:59:00.565Z,99.90
2018-06-09T07:00:03.976Z,99.90
2018-06-09T07:01:07.327Z,99.90
2018-06-09T07:02:10.774Z,99.90
2018-06-09T07:03:14.086Z,99.90
2018-06-09T07:04:17.455Z,99.90
2018-06-09T07:05:20.816Z,99.90
2018-06-09T07:06:24.183Z,99.90
2018-06-09T07:07:27.524Z,99.90
2018-06-09T07:08:30.850Z,99.90
2018-06-09T07:09:34.215Z,99.90
2018-06-09T07:10:37.564Z,99.90
2018-06-09T07:11:40.920Z,99.90
2018-06-09T07:12:44.259Z,99.90
2018-06-09T07:13:47.652Z,99.90
2018-06-09T07:14:51.024Z,99.90
2018-06-09T07:15:54.377Z,99.90
2018-06-09T07:16:57.728Z,99.90
2018-06-09T07:18:01.066Z,99.90
2018-06-09T07:19:04.451Z,99.90
2018-06-09T07:20:07.807Z,99.90
2018-06-09T07:21:11.157Z,99.90
2018-06-09T07:22:14.545Z,99.90
2018-06-09T07:23:17.896Z,99.90
2018-06-09T07:24:21.295Z,99.90
2018-06-09T07:25:24.668Z,99.90
2018-06-09T07:26:28.076Z,99.90
2018-06-09T07:27:31.559Z,99.90
2018-06-09T07:28:34.902Z,99.90
2018-06-09T07:29:38.253Z,99.90
2018-06-09T07:30:41.670Z,99.90
2018-06-09T07:31:45.022Z,99.90
2018-06-09T07:32:48.399Z,99.90
2018-06-09T07:33:51.782Z,99.90
2018-06-09T07:34:55.111Z,99.90
2018-06-09T07:35:58.458Z,99.90
2018-06-09T07:37:01.860Z,99.90
2018-06-09T07:38:05.200Z,99.90
2018-06-09T07:39:08.578Z,99.90
2018-06-09T07:40:11.931Z,99.90
2018-06-09T07:41:15.279Z,99.90
2018-06-09T07:42:18.632Z,99.90
2018-06-09T07:43:22.010Z,99.90
2018-06-09T07:44:25.398Z,99.90
2018-06-09T07:45:28.750Z,99.90
2018-06-09T07:46:32.109Z,99.90
2018-06-09T07:47:35.425Z,99.90
2018-06-09T07:48:38.792Z,99.90
2018-06-09T07:50:45.219Z,99.90
2018-06-09T07:51:48.595Z,99.90
2018-06-09T07:52:51.942Z,99.90
2018-06-09T07:53:55.287Z,99.90
2018-06-09T07:54:58.636Z,99.90
2018-06-09T07:56:01.989Z,99.90
2018-06-09T07:57:05.378Z,99.90
2018-06-09T07:58:08.731Z,99.90
2018-06-09T07:59:12.095Z,99.90
2018-06-09T08:00:15.447Z,99.90
2018-06-09T08:01:18.799Z,99.90
2018-06-09T08:02:22.191Z,99.90
2018-06-09T08:03:25.544Z,99.90
2018-06-09T08:04:28.940Z,99.90
2018-06-09T08:05:32.311Z,99.90
2018-06-09T08:06:35.671Z,99.90
2018-06-09T08:07:39.040Z,99.90
2018-06-09T08:08:42.380Z,99.90
2018-06-09T08:09:45.741Z,99.90
2018-06-09T08:10:49.064Z,99.90
2018-06-09T08:11:52.472Z,99.90
2018-06-09T08:12:55.853Z,99.90
2018-06-09T08:13:59.231Z,99.90
2018-06-09T08:15:02.576Z,99.90
2018-06-09T08:16:05.923Z,99.70
2018-06-09T08:17:09.402Z,99.90
2018-06-09T08:18:12.762Z,99.10
2018-06-09T08:19:16.098Z,98.60
2018-06-09T08:20:19.436Z,98.90
2018-06-09T08:21:22.759Z,98.10
2018-06-09T08:22:26.128Z,99.50
2018-06-09T08:23:29.484Z,98.80
2018-06-09T08:24:32.870Z,99.80
2018-06-09T08:25:36.205Z,98.80
2018-06-09T08:26:39.537Z,98.70
2018-06-09T08:27:42.933Z,98.50
2018-06-09T08:28:46.271Z,99.00
2018-06-09T08:29:49.651Z,99.60
2018-06-09T08:30:53.017Z,97.80
2018-06-09T08:31:56.368Z,96.90
2018-06-09T08:32:59.699Z,97.00
2018-06-09T08:34:03.078Z,97.20
2018-06-09T08:35:06.416Z,97.60
2018-06-09T08:36:09.798Z,98.00
2018-06-09T08:37:13.160Z,98.90
2018-06-09T08:38:16.505Z,98.90
2018-06-09T08:39:19.829Z,99.10
2018-06-09T08:40:23.194Z,98.80
2018-06-09T08:41:26.558Z,98.60
2018-06-09T08:42:29.918Z,98.90
2018-06-09T08:43:33.260Z,99.00
2018-06-09T08:44:36.596Z,98.70
2018-06-09T08:45:39.965Z,99.00
2018-06-09T08:46:43.316Z,98.80
2018-06-09T08:47:46.679Z,98.90
2018-06-09T08:48:50.020Z,98.80
2018-06-09T08:49:53.359Z,97.80
2018-06-09T08:50:56.687Z,97.30
2018-06-09T08:52:00.030Z,97.70
2018-06-09T08:53:03.408Z,97.20
2018-06-09T08:54:06.764Z,97.40
2018-06-09T08:55:10.161Z,96.90
2018-06-09T08:56:13.516Z,97.70
2018-06-09T08:57:16.887Z,97.30
2018-06-09T08:58:20.330Z,95.60
2018-06-09T08:59:23.666Z,94.70
2018-06-09T09:00:27.027Z,95.70
2018-06-09T09:01:30.415Z,94.70
2018-06-09T09:02:33.757Z,94.40
2018-06-09T09:03:37.100Z,94.80
2018-06-09T09:04:40.431Z,94.60
2018-06-09T09:05:43.768Z,93.40
2018-06-09T09:06:47.149Z,92.90
2018-06-09T09:07:50.518Z,92.40
2018-06-09T09:08:53.865Z,93.00
2018-06-09T09:09:57.221Z,93.60
2018-06-09T09:11:00.539Z,93.00
2018-06-09T09:12:03.887Z,92.90
2018-06-09T09:13:07.210Z,92.80
2018-06-09T09:14:10.560Z,92.70
2018-06-09T09:15:13.923Z,92.30
2018-06-09T09:16:17.263Z,93.10
2018-06-09T09:17:20.757Z,92.30
2018-06-09T09:18:24.106Z,92.70
2018-06-09T09:19:27.467Z,92.00
2018-06-09T09:20:30.798Z,91.70
2018-06-09T09:21:34.124Z,92.20
2018-06-09T09:22:37.457Z,92.30
2018-06-09T09:23:40.783Z,92.10
2018-06-09T09:24:44.275Z,92.50
2018-06-09T09:25:47.659Z,92.20
2018-06-09T09:26:51.022Z,92.30
2018-06-09T09:27:54.356Z,92.50
2018-06-09T09:28:57.715Z,92.90
2018-06-09T09:30:01.067Z,92.10
2018-06-09T09:31:04.439Z,91.60
2018-06-09T09:32:07.823Z,91.40
2018-06-09T09:33:11.131Z,90.70
2018-06-09T09:34:14.452Z,90.50
2018-06-09T09:35:17.820Z,91.00
2018-06-09T09:36:21.218Z,91.10
2018-06-09T09:37:24.555Z,91.10
2018-06-09T09:38:27.931Z,91.90
2018-06-09T09:39:31.322Z,91.10
2018-06-09T09:40:34.662Z,91.20
2018-06-09T09:41:38.025Z,91.10
2018-06-09T09:42:41.395Z,91.30
2018-06-09T09:43:44.726Z,90.60
2018-06-09T09:44:48.091Z,90.30
2018-06-09T09:45:51.449Z,90.10
2018-06-09T09:46:54.813Z,89.70
2018-06-09T09:47:58.153Z,89.40
2018-06-09T09:49:01.500Z,90.70
2018-06-09T09:50:04.874Z,89.70
2018-06-09T09:51:08.264Z,88.20
2018-06-09T09:52:11.602Z,88.30
2018-06-09T09:53:14.949Z,89.30
2018-06-09T09:54:18.268Z,90.30
2018-06-09T09:55:21.620Z,89.80
2018-06-09T09:56:25.000Z,89.60
2018-06-09T09:57:28.326Z,89.30
2018-06-09T09:58:31.665Z,90.10
2018-06-09T09:59:35.001Z,90.20
2018-06-09T10:00:39.051Z,90.00
2018-06-09T10:01:42.412Z,88.90
2018-06-09T10:02:45.751Z,90.00
2018-06-09T10:03:49.078Z,90.30
2018-06-09T10:04:52.436Z,89.10
2018-06-09T10:05:55.801Z,89.10
2018-06-09T10:06:59.142Z,89.60
2018-06-09T10:08:02.512Z,90.60
2018-06-09T10:09:08.042Z,90.40
2018-06-09T10:10:11.393Z,90.40
2018-06-09T10:11:14.731Z,89.70
2018-06-09T10:12:18.081Z,90.20
2018-06-09T10:13:21.460Z,90.20
2018-06-09T10:14:24.830Z,90.30
2018-06-09T10:15:28.202Z,90.50
2018-06-09T10:16:31.572Z,89.30
2018-06-09T10:17:34.907Z,90.60
2018-06-09T10:18:38.267Z,90.20
2018-06-09T10:19:41.593Z,89.60
2018-06-09T10:20:44.960Z,88.20
2018-06-09T10:21:48.328Z,88.20
2018-06-09T10:22:51.667Z,87.50
2018-06-09T10:23:54.998Z,89.40
2018-06-09T10:24:58.347Z,88.40
2018-06-09T10:26:01.716Z,86.30
2018-06-09T10:27:05.090Z,85.90
2018-06-09T10:28:08.471Z,86.80
2018-06-09T10:29:11.830Z,87.50
2018-06-09T10:30:15.167Z,87.20
2018-06-09T10:31:18.495Z,86.90
2018-06-09T10:32:21.832Z,85.90
2018-06-09T10:33:25.203Z,85.60
2018-06-09T10:34:28.532Z,86.20
2018-06-09T10:35:31.884Z,86.10
2018-06-09T10:36:35.267Z,84.90
2018-06-09T10:37:38.616Z,87.00
2018-06-09T10:38:41.979Z,87.40
2018-06-09T10:39:45.307Z,83.30
2018-06-09T10:40:48.643Z,85.90
2018-06-09T10:41:52.140Z,84.30
2018-06-09T10:42:55.471Z,85.80
2018-06-09T10:43:58.804Z,83.60
2018-06-09T10:45:02.146Z,83.50
2018-06-09T10:46:05.481Z,82.60
2018-06-09T10:47:08.828Z,81.90
2018-06-09T10:48:12.167Z,82.20
2018-06-09T10:49:15.502Z,81.90
2018-06-09T10:50:18.855Z,81.80
2018-06-09T10:51:22.201Z,80.50
2018-06-09T10:52:25.609Z,81.30
2018-06-09T10:53:29.014Z,80.50
2018-06-09T10:54:32.341Z,80.70
2018-06-09T10:55:35.731Z,79.10
2018-06-09T10:56:39.036Z,79.00
2018-06-09T10:58:45.527Z,79.90
2018-06-09T10:59:48.863Z,79.20
2018-06-09T11:00:52.199Z,79.70
2018-06-09T11:01:55.519Z,79.10
2018-06-09T11:02:58.900Z,79.70
2018-06-09T11:04:02.247Z,78.80
2018-06-09T11:05:05.604Z,77.20
2018-06-09T11:06:08.939Z,77.00
2018-06-09T11:07:12.328Z,76.90
2018-06-09T11:08:15.665Z,75.30
2018-06-09T11:09:19.000Z,76.30
2018-06-09T11:10:22.355Z,75.60
2018-06-09T11:11:25.728Z,73.90
2018-06-09T11:13:32.203Z,71.50
2018-06-09T11:14:35.541Z,72.80
2018-06-09T11:15:38.863Z,72.00
2018-06-09T11:16:42.213Z,73.30
2018-06-09T11:17:45.549Z,73.00
2018-06-09T11:18:48.891Z,72.80
2018-06-09T11:19:52.232Z,72.40
2018-06-09T11:20:55.571Z,71.80
2018-06-09T11:21:58.954Z,71.30
2018-06-09T11:23:02.359Z,71.20
2018-06-09T11:24:05.807Z,71.80
2018-06-09T11:25:09.135Z,71.10
2018-06-09T11:26:12.524Z,71.90
2018-06-09T11:27:15.883Z,72.70
2018-06-09T11:28:19.293Z,73.00
2018-06-09T11:29:22.627Z,70.70
2018-06-09T11:30:25.999Z,69.20
2018-06-09T11:31:29.345Z,68.70
2018-06-09T11:32:32.732Z,68.70
2018-06-09T11:34:39.145Z,71.50
2018-06-09T11:35:42.475Z,70.60
2018-06-09T11:36:45.814Z,71.40
2018-06-09T11:37:49.197Z,71.70
2018-06-09T11:38:52.540Z,72.00
2018-06-09T11:39:55.881Z,72.00
2018-06-09T11:40:59.230Z,70.80
2018-06-09T11:42:02.617Z,70.80
2018-06-09T11:43:06.083Z,71.60
2018-06-09T11:45:12.568Z,70.80
2018-06-09T11:46:15.909Z,69.40
2018-06-09T11:47:19.276Z,69.00
2018-06-09T11:48:22.656Z,70.20
2018-06-09T11:49:25.990Z,70.90
2018-06-09T11:50:29.344Z,70.10
2018-06-09T11:52:42.404Z,70.20
2018-06-09T11:53:45.739Z,70.40
2018-06-09T11:54:49.121Z,71.00
2018-06-09T11:55:52.468Z,70.10
2018-06-09T11:56:55.808Z,71.70
2018-06-09T11:57:59.153Z,73.10
2018-06-09T11:59:02.491Z,70.80
2018-06-09T12:00:05.894Z,71.60
2018-06-09T12:01:09.268Z,70.90
2018-06-09T12:02:12.628Z,70.10
2018-06-09T12:03:15.958Z,70.80
2018-06-09T12:04:19.298Z,70.50
2018-06-09T12:05:22.663Z,71.40
2018-06-09T12:06:26.043Z,72.90
2018-06-09T12:07:29.374Z,73.50
2018-06-09T12:08:32.709Z,72.30
2018-06-09T12:09:36.057Z,72.90
2018-06-09T12:10:39.413Z,73.10
2018-06-09T12:12:52.447Z,72.50
2018-06-09T12:13:55.855Z,73.20
2018-06-09T12:14:59.194Z,73.00
2018-06-09T12:16:02.544Z,71.40
2018-06-09T12:17:06.134Z,71.20
2018-06-09T12:18:09.534Z,72.40
2018-06-09T12:19:12.884Z,72.60
2018-06-09T12:20:16.210Z,73.60
2018-06-09T12:21:19.544Z,72.00
2018-06-09T12:22:22.909Z,73.00
2018-06-09T12:23:26.299Z,71.80
2018-06-09T12:24:29.632Z,71.30
2018-06-09T12:25:32.979Z,70.50
2018-06-09T12:26:36.323Z,69.80
2018-06-09T12:27:39.703Z,70.10
2018-06-09T12:28:43.120Z,69.00
2018-06-09T12:29:46.516Z,69.30
2018-06-09T12:30:49.852Z,70.50
2018-06-09T12:31:53.280Z,70.30
2018-06-09T12:32:56.615Z,70.40
2018-06-09T12:33:59.992Z,69.30
2018-06-09T12:35:03.352Z,70.10
2018-06-09T12:36:06.748Z,70.20
2018-06-09T12:37:10.096Z,69.00
2018-06-09T12:38:13.452Z,69.60
2018-06-09T12:39:16.851Z,68.20
2018-06-09T12:40:20.263Z,68.10
2018-06-09T12:41:23.579Z,68.30
2018-06-09T12:42:26.947Z,69.80
2018-06-09T12:43:30.269Z,70.30
2018-06-09T12:44:33.595Z,71.10
2018-06-09T12:45:36.959Z,70.20
2018-06-09T12:46:40.303Z,69.50
2018-06-09T12:47:43.620Z,68.70
2018-06-09T12:48:47.011Z,67.40
2018-06-09T12:49:50.301Z,67.90
2018-06-09T12:50:53.635Z,67.30
2018-06-09T12:51:57.015Z,67.40
2018-06-09T12:53:00.370Z,66.50
2018-06-09T12:54:03.688Z,67.20
2018-06-09T12:55:07.025Z,66.20
2018-06-09T12:56:10.362Z,64.30
2018-06-09T12:57:13.740Z,65.40
2018-06-09T12:58:17.068Z,64.80
2018-06-09T12:59:20.401Z,63.70
2018-06-09T13:00:23.741Z,62.40
2018-06-09T13:01:27.118Z,64.00
2018-06-09T13:02:30.470Z,63.80
2018-06-09T13:03:33.788Z,62.80
2018-06-09T13:04:37.161Z,64.70
2018-06-09T13:05:40.499Z,64.10
2018-06-09T13:06:43.835Z,64.00
2018-06-09T13:07:47.169Z,62.10
2018-06-09T13:08:50.504Z,61.20
2018-06-09T13:09:53.876Z,60.20
2018-06-09T13:10:57.211Z,63.30
2018-06-09T13:12:00.542Z,64.80
2018-06-09T13:13:03.923Z,61.30
2018-06-09T13:14:07.313Z,61.50
2018-06-09T13:15:10.632Z,62.20
2018-06-09T13:16:14.037Z,63.60
2018-06-09T13:17:17.383Z,63.40
2018-06-09T13:18:20.760Z,62.20
2018-06-09T13:19:24.107Z,61.50
2018-06-09T13:20:27.439Z,64.10
2018-06-09T13:21:30.775Z,60.40
2018-06-09T13:22:34.098Z,60.70
2018-06-09T13:23:37.458Z,59.00
2018-06-09T13:24:40.784Z,61.30
2018-06-09T13:25:44.099Z,62.50
2018-06-09T13:26:47.416Z,63.20
2018-06-09T13:27:50.767Z,60.30
2018-06-09T13:28:54.099Z,60.70
2018-06-09T13:29:57.457Z,60.20
2018-06-09T13:31:00.829Z,60.30
2018-06-09T13:32:04.152Z,60.90
2018-06-09T13:33:07.489Z,62.30
2018-06-09T13:34:10.888Z,62.10
2018-06-09T13:35:14.228Z,62.60
2018-06-09T13:36:17.556Z,64.30
2018-06-09T13:37:20.895Z,64.80
2018-06-09T13:38:24.216Z,66.90
2018-06-09T13:39:27.578Z,68.00
2018-06-09T13:40:30.915Z,66.60
2018-06-09T13:41:34.499Z,67.10
2018-06-09T13:42:37.815Z,67.90
2018-06-09T13:43:41.161Z,69.30
2018-06-09T13:44:44.532Z,66.50
2018-06-09T13:45:47.846Z,71.00
2018-06-09T13:46:51.257Z,67.60
2018-06-09T13:47:54.566Z,67.20
2018-06-09T13:48:57.892Z,65.10
2018-06-09T13:50:01.257Z,66.20
2018-06-09T13:51:04.620Z,64.70
2018-06-09T13:52:07.975Z,66.70
2018-06-09T13:53:11.364Z,67.60